Time;durP1;ratioP1;P1;durP2;ratioP2;P2;SDS_P1;SDS_P2;PMS_P1;PMS_P2;Temp;Humidity;BMP_temperature;BMP_pressure;BME280_temperature;BME280_humidity;BME280_pressure;Samples;Min_cycle;Max_cycle;Signal;HPM_P1;HPM_P2
2021/07/31 04:20:08;;;;;;;3.35;1.52;;;;;;;17.17;74.59;98194.75;4997596;22;104488;-65
2021/07/31 04:22:37;;;;;;;3.28;1.38;;;;;;;17.24;74.61;98194.91;4996515;27;103488;-63
2021/07/31 04:25:07;;;;;;;2.03;1.30;;;;;;;17.32;74.53;98190.41;5008682;27;104345;-64
2021/07/31 04:27:38;;;;;;;3.30;1.77;;;;;;;17.20;75.42;98198.94;5010030;28;103369;-63
2021/07/31 04:30:08;;;;;;;4.45;1.48;;;;;;;17.17;75.97;98204.59;5011457;28;103166;-60
2021/07/31 04:32:37;;;;;;;2.10;1.73;;;;;;;17.12;76.54;98199.72;4991779;28;102771;-60
2021/07/31 04:35:07;;;;;;;3.72;1.80;;;;;;;17.06;76.03;98199.56;4994358;28;102679;-60
2021/07/31 04:37:36;;;;;;;2.72;1.45;;;;;;;17.00;76.53;98205.56;5008730;28;103151;-61
2021/07/31 04:40:06;;;;;;;1.77;1.60;;;;;;;17.09;75.91;98202.75;5008874;28;105015;-61
2021/07/31 04:42:34;;;;;;;2.28;1.15;;;;;;;17.14;76.35;98210.25;4998722;28;102747;-61
2021/07/31 04:45:02;;;;;;;2.45;1.58;;;;;;;17.30;75.63;98212.94;5004593;28;103952;-61
2021/07/31 04:47:36;;;;;;;3.30;1.42;;;;;;;17.37;75.87;98216.66;4992785;28;103148;-60
2021/07/31 04:50:08;;;;;;;4.00;1.58;;;;;;;17.35;76.39;98207.94;5005082;28;104512;-61
2021/07/31 04:52:37;;;;;;;4.35;1.90;;;;;;;17.34;77.32;98215.13;5010463;28;102661;-60
2021/07/31 04:55:06;;;;;;;3.35;1.77;;;;;;;17.45;77.14;98213.97;5010792;28;102688;-66
2021/07/31 04:57:35;;;;;;;2.25;1.45;;;;;;;17.51;77.49;98213.31;5008945;28;103719;-65
2021/07/31 05:00:05;;;;;;;2.25;1.55;;;;;;;17.55;77.07;98217.34;5006816;28;103161;-66
2021/07/31 05:02:33;;;;;;;3.25;1.42;;;;;;;17.58;77.08;98214.34;5014966;27;102681;-68
2021/07/31 05:05:03;;;;;;;3.08;1.52;;;;;;;17.55;77.47;98224.50;5007438;28;103847;-67
2021/07/31 05:07:32;;;;;;;4.03;1.60;;;;;;;17.63;77.28;98225.34;5009776;28;104651;-63
2021/07/31 05:10:01;;;;;;;1.85;1.40;;;;;;;17.79;77.35;98229.88;5007227;28;104286;-63
2021/07/31 05:12:29;;;;;;;2.25;1.27;;;;;;;17.91;76.40;98232.03;5010969;28;102601;-63
2021/07/31 05:14:57;;;;;;;3.67;1.63;;;;;;;18.05;75.97;98227.84;5007088;28;102757;-63
2021/07/31 05:17:25;;;;;;;6.15;2.20;;;;;;;18.09;76.04;98233.69;4999769;28;103929;-66
2021/07/31 05:19:53;;;;;;;2.97;1.80;;;;;;;18.16;74.35;98221.34;5010706;27;103280;-67
2021/07/31 05:22:21;;;;;;;3.17;2.17;;;;;;;18.27;73.01;98234.34;4992110;28;103116;-68
2021/07/31 05:24:54;;;;;;;2.25;1.30;;;;;;;18.35;72.79;98228.97;5005104;28;102712;-67
2021/07/31 05:27:22;;;;;;;1.45;1.25;;;;;;;18.45;72.13;98229.59;4989371;28;103436;-67
2021/07/31 05:29:50;;;;;;;2.47;1.50;;;;;;;18.54;71.57;98233.97;4994553;28;103654;-67
2021/07/31 05:32:18;;;;;;;2.95;1.35;;;;;;;18.58;71.30;98240.66;5007667;28;102649;-68
2021/07/31 05:34:47;;;;;;;1.48;1.15;;;;;;;18.68;71.19;98232.41;5009554;28;102620;-68
2021/07/31 05:37:15;;;;;;;4.43;1.60;;;;;;;18.70;70.13;98239.25;5014483;28;103306;-68
2021/07/31 05:39:44;;;;;;;4.60;1.65;;;;;;;18.70;70.56;98235.75;5011387;28;104285;-68
2021/07/31 05:42:16;;;;;;;2.05;1.20;;;;;;;18.79;70.17;98232.03;4992190;28;102821;-68
2021/07/31 05:44:45;;;;;;;1.55;1.30;;;;;;;18.90;70.28;98240.53;5009353;27;103141;-68
2021/07/31 05:47:13;;;;;;;2.08;1.27;;;;;;;19.03;69.18;98237.31;5010893;28;103351;-68
2021/07/31 05:49:41;;;;;;;4.80;1.70;;;;;;;18.94;68.75;98236.50;5009801;28;103186;-68
2021/07/31 05:52:09;;;;;;;2.58;1.65;;;;;;;19.10;69.29;98233.72;5010948;28;102660;-68
2021/07/31 05:54:37;;;;;;;3.75;1.88;;;;;;;19.04;68.55;98229.06;5007538;28;102618;-67
2021/07/31 05:57:06;;;;;;;2.50;1.30;;;;;;;19.22;68.40;98234.19;5003672;28;104491;-67
2021/07/31 05:59:36;;;;;;;6.13;2.58;;;;;;;19.30;68.28;98233.28;5006492;28;103090;-68
2021/07/31 06:02:06;;;;;;;4.75;1.90;;;;;;;19.30;67.95;98236.81;5010422;28;102749;-67
2021/07/31 06:04:35;;;;;;;3.17;1.65;;;;;;;19.45;69.12;98239.59;5005962;28;103013;-68
2021/07/31 06:07:06;;;;;;;2.63;1.63;;;;;;;19.52;69.04;98235.19;4992889;28;103595;-68
2021/07/31 06:09:34;;;;;;;3.70;1.20;;;;;;;19.54;68.46;98244.69;5012910;27;103206;-67
2021/07/31 06:12:03;;;;;;;3.95;1.70;;;;;;;19.37;69.36;98239.63;4998624;28;102865;-67
2021/07/31 06:14:34;;;;;;;4.20;1.60;;;;;;;19.39;67.88;98238.47;4990012;28;102735;-68
2021/07/31 06:17:04;;;;;;;3.47;1.50;;;;;;;19.57;67.10;98238.16;5011049;27;103354;-68
2021/07/31 06:19:34;;;;;;;3.97;1.58;;;;;;;19.70;65.13;98226.84;5009637;28;103206;-68
2021/07/31 06:22:03;;;;;;;12.27;3.63;;;;;;;19.92;66.93;98242.91;5003891;28;103028;-66
2021/07/31 06:24:31;;;;;;;12.82;5.78;;;;;;;20.05;67.41;98242.28;5007814;28;102745;-68
2021/07/31 06:26:59;;;;;;;8.82;1.70;;;;;;;19.96;65.86;98233.47;5010119;28;103267;-68
2021/07/31 06:29:27;;;;;;;3.03;1.50;;;;;;;20.03;65.22;98238.97;5010079;28;103098;-62
2021/07/31 06:31:55;;;;;;;3.72;1.42;;;;;;;20.09;64.17;98239.09;4989633;28;102869;-62
2021/07/31 06:34:26;;;;;;;2.83;1.63;;;;;;;20.19;63.69;98245.00;5007369;28;103736;-61
2021/07/31 06:36:54;;;;;;;2.78;1.27;;;;;;;20.31;63.23;98247.28;5004856;28;103801;-61
2021/07/31 06:39:22;;;;;;;2.28;1.10;;;;;;;20.42;63.53;98244.97;5005474;28;103084;-61
2021/07/31 06:41:50;;;;;;;4.35;1.52;;;;;;;20.22;63.48;98239.28;5005338;28;102744;-63
2021/07/31 06:44:18;;;;;;;7.07;2.00;;;;;;;20.34;63.62;98237.03;5007634;28;102783;-62
2021/07/31 06:46:46;;;;;;;6.93;1.95;;;;;;;20.42;62.75;98239.63;5007475;28;104494;-62
2021/07/31 06:49:14;;;;;;;6.43;1.48;;;;;;;20.39;63.27;98244.50;4994005;28;103210;-62
2021/07/31 06:51:44;;;;;;;5.35;1.90;;;;;;;20.46;63.46;98238.25;5015200;28;102597;-62
2021/07/31 06:54:12;;;;;;;4.45;1.52;;;;;;;20.63;63.16;98241.59;5018036;28;102847;-62
2021/07/31 06:56:40;;;;;;;6.20;1.75;;;;;;;20.45;62.39;98241.09;5007154;27;103423;-62
2021/07/31 06:59:08;;;;;;;3.95;1.83;;;;;;;20.60;62.94;98236.59;5011258;28;103158;-63
2021/07/31 07:01:36;;;;;;;2.40;1.27;;;;;;;20.77;61.51;98243.44;5008659;28;102594;-63
2021/07/31 07:04:05;;;;;;;2.90;1.23;;;;;;;20.96;62.36;98237.47;4991974;28;102855;-63
2021/07/31 07:06:33;;;;;;;3.50;1.60;;;;;;;20.84;61.38;98233.59;5005668;28;103402;-63
2021/07/31 07:09:02;;;;;;;3.13;1.33;;;;;;;21.15;60.95;98231.56;4998695;28;104223;-63
2021/07/31 07:11:30;;;;;;;2.33;1.40;;;;;;;21.21;60.63;98229.97;4992491;28;103109;-63
2021/07/31 07:13:58;;;;;;;2.80;1.00;;;;;;;21.22;60.04;98232.44;5009520;28;102808;-63
2021/07/31 07:16:27;;;;;;;1.77;1.33;;;;;;;21.38;59.78;98231.41;5009498;27;103423;-63
2021/07/31 07:18:55;;;;;;;3.45;1.40;;;;;;;21.57;59.06;98225.41;5009823;27;103310;-62
2021/07/31 07:21:23;;;;;;;6.90;1.80;;;;;;;21.15;59.02;98225.34;4996799;28;102760;-62
2021/07/31 07:23:51;;;;;;;10.38;2.13;;;;;;;20.87;59.95;98227.84;5011568;28;102764;-67
2021/07/31 07:26:21;;;;;;;5.97;1.45;;;;;;;21.29;58.18;98222.63;5014178;28;103429;-65
2021/07/31 07:28:49;;;;;;;4.30;1.63;;;;;;;21.55;58.47;98222.06;5014619;28;104333;-65
2021/07/31 07:31:17;;;;;;;7.65;1.40;;;;;;;21.80;57.59;98230.59;5009901;28;102766;-65
2021/07/31 07:33:45;;;;;;;4.97;1.52;;;;;;;21.73;56.16;98224.28;5013484;28;102694;-66
2021/07/31 07:36:14;;;;;;;3.03;1.45;;;;;;;21.84;57.31;98227.31;5009694;28;103263;-66
2021/07/31 07:38:43;;;;;;;2.35;1.50;;;;;;;22.37;56.08;98225.88;5012179;28;103158;-66
2021/07/31 07:41:13;;;;;;;4.97;1.60;;;;;;;21.92;56.62;98212.94;5005856;28;102886;-66
2021/07/31 07:43:43;;;;;;;4.00;1.50;;;;;;;21.88;57.48;98217.03;5012455;28;103049;-65
2021/07/31 07:46:15;;;;;;;5.55;1.70;;;;;;;21.82;58.11;98223.16;5010168;28;103666;-66
2021/07/31 07:48:44;;;;;;;4.93;1.50;;;;;;;22.13;57.41;98226.34;5012318;28;103159;-66
2021/07/31 07:51:12;;;;;;;2.50;1.52;;;;;;;22.40;56.21;98228.19;4996511;28;103246;-66
2021/07/31 07:53:40;;;;;;;10.98;2.33;;;;;;;22.50;56.44;98222.47;5013428;27;103520;-65
2021/07/31 07:56:09;;;;;;;7.05;1.67;;;;;;;23.02;54.04;98217.38;4990322;28;103365;-66
2021/07/31 07:58:37;;;;;;;4.45;1.60;;;;;;;23.05;53.79;98227.75;5009803;28;104302;-65
2021/07/31 08:01:11;;;;;;;4.63;2.20;;;;;;;23.27;52.86;98220.38;4992781;28;102587;-64
2021/07/31 08:03:39;;;;;;;3.38;1.50;;;;;;;22.89;52.45;98221.88;5008609;27;102776;-64
2021/07/31 08:06:08;;;;;;;4.55;1.92;;;;;;;23.75;53.19;98218.44;5012141;28;103220;-64
2021/07/31 08:08:36;;;;;;;3.65;1.50;;;;;;;23.84;52.25;98211.81;5012011;28;103431;-64
2021/07/31 08:11:08;;;;;;;2.80;1.55;;;;;;;23.89;50.47;98213.91;5009836;28;102750;-64
2021/07/31 08:13:36;;;;;;;2.72;1.48;;;;;;;24.38;50.16;98210.78;5011814;28;102694;-65
2021/07/31 08:16:05;;;;;;;4.10;1.35;;;;;;;25.01;49.49;98214.63;5007349;28;103149;-66
2021/07/31 08:18:35;;;;;;;2.72;1.23;;;;;;;25.14;49.73;98209.16;5007367;28;103208;-63
2021/07/31 08:21:04;;;;;;;3.78;1.60;;;;;;;25.17;48.66;98209.56;5009763;28;102662;-64
2021/07/31 08:23:32;;;;;;;2.65;1.17;;;;;;;24.74;48.73;98213.84;5012336;28;102777;-64
2021/07/31 08:26:02;;;;;;;2.47;1.40;;;;;;;24.03;50.75;98210.16;4990961;28;103333;-64
2021/07/31 08:28:30;;;;;;;2.47;1.83;;;;;;;25.18;48.72;98205.78;5014223;28;103254;-64
2021/07/31 08:30:58;;;;;;;3.22;1.60;;;;;;;24.41;51.04;98216.63;4991649;28;102634;-65
2021/07/31 08:33:26;;;;;;;3.08;1.73;;;;;;;24.27;50.78;98214.97;5007891;28;102600;-64
2021/07/31 08:35:59;;;;;;;5.07;1.65;;;;;;;24.38;48.36;98206.22;4992263;28;103221;-64
2021/07/31 08:38:28;;;;;;;14.52;2.42;;;;;;;23.97;50.68;98213.72;5005004;28;103128;-65
2021/07/31 08:40:56;;;;;;;3.17;1.60;;;;;;;24.61;49.69;98212.00;4995900;28;102932;-64
2021/07/31 08:43:24;;;;;;;3.15;1.60;;;;;;;24.91;49.75;98216.94;5015750;28;102625;-65
2021/07/31 08:45:53;;;;;;;3.05;1.63;;;;;;;24.54;48.95;98207.66;4992952;28;103739;-63
2021/07/31 08:48:27;;;;;;;2.65;1.52;;;;;;;24.83;49.92;98211.75;5008793;28;103847;-66
2021/07/31 08:51:00;;;;;;;3.60;1.73;;;;;;;25.72;48.05;98218.00;5012106;28;102617;-63
2021/07/31 08:53:30;;;;;;;1.98;1.33;;;;;;;24.88;48.76;98214.66;5009680;28;102806;-63
2021/07/31 08:56:00;;;;;;;4.55;1.30;;;;;;;24.19;50.40;98226.81;5010281;28;103497;-63
2021/07/31 08:58:29;;;;;;;2.75;1.25;;;;;;;24.07;51.61;98217.63;4992564;28;103466;-63
2021/07/31 09:00:58;;;;;;;4.47;1.48;;;;;;;24.08;49.73;98207.69;5011413;28;102675;-63
2021/07/31 09:03:26;;;;;;;3.35;1.92;;;;;;;25.18;48.62;98221.22;5006543;28;102687;-62
2021/07/31 09:05:54;;;;;;;4.05;1.70;;;;;;;25.32;47.28;98206.56;4989116;28;103390;-62
2021/07/31 09:08:24;;;;;;;3.67;1.77;;;;;;;24.93;48.06;98218.38;5014741;28;104459;-62
2021/07/31 09:10:52;;;;;;;5.07;1.90;;;;;;;25.47;47.54;98209.84;5010458;28;102687;-61
2021/07/31 09:13:20;;;;;;;2.63;1.67;;;;;;;24.96;48.36;98211.72;5011004;28;102839;-62
2021/07/31 09:15:52;;;;;;;3.95;1.98;;;;;;;26.32;48.41;98213.81;4995221;28;103438;-62
2021/07/31 09:18:29;;;;;;;5.22;1.90;;;;;;;26.16;46.04;98198.13;5010459;27;103852;-62
2021/07/31 09:21:07;;;;;;;4.32;1.60;;;;;;;26.45;45.01;98200.97;4993732;28;102775;-62
2021/07/31 09:23:48;;;;;;;2.15;1.30;;;;;;;26.47;47.63;98198.06;5005895;28;102559;-63
2021/07/31 09:26:20;;;;;;;2.45;1.40;;;;;;;27.01;44.79;98192.66;5005775;28;103469;-63
2021/07/31 09:29:00;;;;;;;2.28;1.42;;;;;;;27.48;46.49;98184.78;5008459;27;104366;-63
2021/07/31 09:31:29;;;;;;;2.92;1.42;;;;;;;27.56;45.68;98189.88;5011197;28;102634;-63
2021/07/31 09:34:00;;;;;;;3.88;1.50;;;;;;;27.36;44.21;98186.59;5005780;28;102681;-63
2021/07/31 09:36:36;;;;;;;3.53;1.90;;;;;;;27.78;43.66;98180.16;5012722;28;103499;-63
2021/07/31 09:39:07;;;;;;;4.05;1.40;;;;;;;28.35;43.33;98172.31;4991760;28;104334;-63
2021/07/31 09:41:37;;;;;;;2.40;1.55;;;;;;;27.92;43.84;98181.59;5010409;28;102624;-63
2021/07/31 09:44:10;;;;;;;3.35;1.50;;;;;;;28.33;42.97;98172.56;5006393;28;102768;-63
2021/07/31 09:46:44;;;;;;;2.60;1.50;;;;;;;28.74;42.05;98171.63;5013198;28;103356;-63
2021/07/31 09:49:14;;;;;;;3.78;1.63;;;;;;;27.81;41.06;98171.53;5005695;28;103271;-64
2021/07/31 09:51:44;;;;;;;3.40;2.15;;;;;;;28.44;41.87;98165.44;5003882;28;102612;-65
2021/07/31 09:54:15;;;;;;;3.15;1.88;;;;;;;29.72;39.90;98163.22;5006111;28;102652;-64
2021/07/31 09:56:46;;;;;;;3.55;2.20;;;;;;;28.78;40.37;98167.34;5005855;28;103319;-64
2021/07/31 09:59:17;;;;;;;4.13;2.05;;;;;;;28.71;40.71;98172.91;5010693;28;103270;-64
2021/07/31 10:01:47;;;;;;;2.35;1.60;;;;;;;29.23;41.51;98153.88;4993131;27;103016;-63
2021/07/31 10:04:16;;;;;;;2.60;1.48;;;;;;;29.49;38.78;98153.28;4983054;28;102758;-64
2021/07/31 10:06:45;;;;;;;3.75;1.42;;;;;;;28.65;42.00;98163.00;5008486;28;104414;-64
2021/07/31 10:09:15;;;;;;;6.38;1.27;;;;;;;28.51;42.47;98158.03;5002669;27;103376;-65
2021/07/31 10:11:44;;;;;;;5.95;1.40;;;;;;;28.00;42.07;98154.09;5008671;28;102564;-65
2021/07/31 10:14:13;;;;;;;3.67;1.05;;;;;;;27.76;41.56;98152.41;4989329;27;102799;-63
2021/07/31 10:16:46;;;;;;;3.17;1.70;;;;;;;28.25;40.74;98150.34;4997926;27;103629;-64
2021/07/31 10:19:15;;;;;;;5.25;1.77;;;;;;;27.10;41.63;98146.25;5005306;27;103281;-65
2021/07/31 10:21:57;;;;;;;3.58;1.40;;;;;;;27.73;40.67;98152.06;5006352;28;102639;-64
2021/07/31 10:24:28;;;;;;;2.20;1.40;;;;;;;27.78;40.80;98153.00;5007441;28;102642;-64
2021/07/31 10:27:23;;;;;;;3.72;1.73;;;;;;;26.79;41.27;98158.94;4995060;28;105656;-62
2021/07/31 10:29:52;;;;;;;3.83;1.67;;;;;;;25.76;42.51;98157.00;5000720;28;104674;-63
2021/07/31 10:32:43;;;;;;;3.00;1.30;;;;;;;27.12;41.19;98149.59;5010412;28;103004;-63
2021/07/31 10:35:42;;;;;;;2.75;1.45;;;;;;;27.77;40.93;98143.19;5011550;28;102686;-64
2021/07/31 10:38:12;;;;;;;3.05;1.42;;;;;;;26.68;43.56;98159.69;5004360;27;103450;-64
2021/07/31 10:40:46;;;;;;;2.53;1.60;;;;;;;25.58;42.37;98155.06;5008525;28;103157;-65
2021/07/31 10:43:15;;;;;;;2.05;1.42;;;;;;;27.04;44.13;98154.25;5005448;28;102615;-65
2021/07/31 10:45:43;;;;;;;3.35;1.30;;;;;;;27.46;40.95;98154.31;4989086;28;102891;-64
2021/07/31 10:48:35;;;;;;;2.00;1.50;;;;;;;28.02;41.78;98151.97;5005537;28;103225;-62
2021/07/31 10:51:04;;;;;;;3.60;1.67;;;;;;;27.51;41.09;98159.88;4989195;28;103549;-63
2021/07/31 10:53:50;;;;;;;3.15;1.85;;;;;;;26.14;41.81;98159.63;5000431;28;102746;-64
2021/07/31 10:56:20;;;;;;;3.15;1.35;;;;;;;27.14;41.30;98155.59;4987117;28;102739;-64
2021/07/31 10:59:13;;;;;;;3.08;1.30;;;;;;;28.18;43.18;98153.19;5006804;27;103350;-64
2021/07/31 11:01:41;;;;;;;2.33;1.40;;;;;;;27.68;41.07;98160.06;5007995;28;103080;-64
2021/07/31 11:04:12;;;;;;;3.85;1.67;;;;;;;25.90;44.05;98164.81;4986931;28;102656;-64
2021/07/31 11:07:25;;;;;;;4.10;1.20;;;;;;;25.94;44.49;98157.88;4990977;28;104867;-64
2021/07/31 11:10:34;;;;;;;3.60;1.67;;;;;;;26.07;44.79;98158.81;4992240;28;103969;-64
2021/07/31 11:13:04;;;;;;;4.65;1.50;;;;;;;25.78;44.73;98157.63;5011961;28;103578;-64
2021/07/31 11:15:33;;;;;;;3.50;1.80;;;;;;;27.10;43.47;98152.50;4990643;28;103752;-64
2021/07/31 11:18:03;;;;;;;4.22;1.48;;;;;;;27.47;41.91;98156.00;5012136;27;102600;-64
2021/07/31 11:20:36;;;;;;;2.70;1.40;;;;;;;27.42;39.92;98156.69;5006701;28;103208;-64
2021/07/31 11:23:09;;;;;;;3.17;1.40;;;;;;;28.41;39.17;98149.66;5010201;28;103918;-64
2021/07/31 11:25:38;;;;;;;1.42;1.30;;;;;;;28.73;40.32;98159.06;5006571;28;102648;-64
2021/07/31 11:28:11;;;;;;;3.58;1.63;;;;;;;29.06;40.23;98152.94;5010589;28;102727;-64
2021/07/31 11:30:44;;;;;;;2.90;1.52;;;;;;;28.16;40.29;98158.84;5010781;28;103301;-64
2021/07/31 11:33:21;;;;;;;5.15;1.95;;;;;;;27.97;40.62;98160.00;4976156;28;103295;-64
2021/07/31 11:35:50;;;;;;;3.47;1.77;;;;;;;28.75;40.68;98154.22;5012397;28;102559;-64
2021/07/31 11:38:33;;;;;;;2.60;1.55;;;;;;;28.68;39.02;98150.81;5006796;28;102617;-64
2021/07/31 11:41:05;;;;;;;2.22;1.60;;;;;;;27.66;40.98;98146.72;5015012;28;103307;-65
2021/07/31 11:43:49;;;;;;;2.35;1.67;;;;;;;28.31;39.51;98154.84;5006794;28;103161;-64
2021/07/31 11:46:43;;;;;;;4.10;1.50;;;;;;;26.54;42.07;98160.88;5009710;28;102994;-64
2021/07/31 11:49:13;;;;;;;4.35;1.92;;;;;;;27.20;41.38;98151.97;5008798;28;102848;-65
2021/07/31 11:51:43;;;;;;;3.33;1.50;;;;;;;27.51;41.99;98149.03;5006802;27;103637;-65
2021/07/31 11:54:12;;;;;;;3.40;1.45;;;;;;;25.89;43.80;98149.59;5012950;28;103489;-65
2021/07/31 11:56:42;;;;;;;4.35;1.70;;;;;;;25.54;45.43;98150.31;5011991;28;102679;-64
2021/07/31 11:59:12;;;;;;;3.65;1.83;;;;;;;26.92;42.53;98145.22;4990481;28;102770;-64
2021/07/31 12:01:48;;;;;;;3.15;1.88;;;;;;;26.37;43.46;98148.97;5014418;27;104523;-64
2021/07/31 12:04:16;;;;;;;3.60;1.50;;;;;;;26.58;42.49;98142.31;5009790;27;103380;-65
2021/07/31 12:06:45;;;;;;;5.22;1.80;;;;;;;27.55;42.57;98132.06;5008628;28;102891;-64
2021/07/31 12:09:24;;;;;;;6.28;1.63;;;;;;;26.39;42.33;98142.28;5011258;27;102597;-64
2021/07/31 12:11:55;;;;;;;3.75;1.33;;;;;;;25.20;44.71;98143.44;5012254;28;103366;-64
2021/07/31 12:14:36;;;;;;;3.08;1.50;;;;;;;25.97;45.00;98145.78;5005517;28;103355;-64
2021/07/31 12:17:25;;;;;;;2.85;1.60;;;;;;;25.81;44.89;98141.78;5014220;27;102614;-63
2021/07/31 12:19:55;;;;;;;3.72;1.60;;;;;;;24.46;47.19;98145.78;4999158;28;104515;-64
2021/07/31 12:22:25;;;;;;;2.35;1.25;;;;;;;25.13;46.01;98139.91;4987800;27;103349;-64
2021/07/31 12:25:12;;;;;;;3.25;1.50;;;;;;;25.79;43.13;98143.03;5009998;28;103256;-62
2021/07/31 12:28:05;;;;;;;4.22;1.73;;;;;;;26.29;44.01;98138.44;5010843;27;102596;-63
2021/07/31 12:30:42;;;;;;;2.38;1.42;;;;;;;27.14;41.77;98137.47;5010629;28;102743;-65
2021/07/31 12:33:18;;;;;;;4.45;1.65;;;;;;;26.12;44.25;98127.34;5007502;27;103325;-62
2021/07/31 12:35:47;;;;;;;2.83;1.42;;;;;;;25.13;46.01;98129.09;5007729;27;103868;-63
2021/07/31 12:38:17;;;;;;;2.47;1.27;;;;;;;26.75;43.79;98127.91;4994831;28;102689;-64
2021/07/31 12:40:47;;;;;;;3.00;1.75;;;;;;;26.81;43.18;98127.03;5010146;27;102640;-63
2021/07/31 12:43:16;;;;;;;3.17;1.38;;;;;;;27.56;40.96;98125.59;5008825;27;103611;-64
2021/07/31 12:45:47;;;;;;;3.38;1.45;;;;;;;27.02;42.62;98128.44;4985702;28;103889;-63
2021/07/31 12:48:16;;;;;;;4.22;1.40;;;;;;;26.19;43.98;98143.56;5005901;28;102643;-63
2021/07/31 12:50:45;;;;;;;3.17;1.63;;;;;;;25.11;44.08;98136.63;5006561;28;103766;-63
2021/07/31 12:53:14;;;;;;;2.85;1.23;;;;;;;25.10;45.74;98140.34;5011941;28;104478;-63
2021/07/31 12:55:43;;;;;;;1.92;1.42;;;;;;;25.41;45.47;98132.25;5006863;28;103386;-63
2021/07/31 12:58:11;;;;;;;2.30;1.30;;;;;;;26.48;43.09;98134.69;5010573;28;102944;-63
2021/07/31 13:00:40;;;;;;;3.50;1.50;;;;;;;27.19;41.91;98129.47;5012632;28;102809;-62
2021/07/31 13:03:10;;;;;;;2.22;1.17;;;;;;;27.24;41.55;98121.44;5012091;27;103958;-63
2021/07/31 13:05:41;;;;;;;3.05;1.73;;;;;;;27.80;41.08;98129.16;5011042;28;103167;-63
2021/07/31 13:08:10;;;;;;;2.60;1.65;;;;;;;27.09;40.88;98129.16;5010160;28;102664;-63
2021/07/31 13:10:41;;;;;;;5.47;1.70;;;;;;;28.16;40.06;98120.00;4999612;28;102729;-63
2021/07/31 13:13:11;;;;;;;3.03;1.88;;;;;;;26.54;41.60;98114.84;5013588;27;102949;-64
2021/07/31 13:15:40;;;;;;;6.93;2.05;;;;;;;26.70;43.37;98118.81;5012000;27;103236;-64
2021/07/31 13:18:12;;;;;;;4.45;1.60;;;;;;;26.29;42.58;98116.78;5009647;28;102938;-64
2021/07/31 13:20:41;;;;;;;2.30;1.58;;;;;;;26.30;43.20;98113.84;4991002;28;102671;-63
2021/07/31 13:23:10;;;;;;;2.15;1.50;;;;;;;26.99;42.97;98105.34;4993800;28;108775;-62
2021/07/31 13:25:38;;;;;;;2.80;1.73;;;;;;;27.91;41.01;98101.22;5006263;28;103299;-62
2021/07/31 13:28:06;;;;;;;2.17;1.50;;;;;;;27.61;42.42;98105.91;5012182;27;102646;-63
2021/07/31 13:30:36;;;;;;;2.22;1.15;;;;;;;28.38;40.18;98101.25;5011593;27;102609;-60
2021/07/31 13:33:05;;;;;;;3.60;1.73;;;;;;;28.30;40.31;98104.28;5010322;28;103543;-59
2021/07/31 13:35:36;;;;;;;2.72;1.52;;;;;;;27.57;41.63;98099.28;5011146;28;103246;-60
2021/07/31 13:38:04;;;;;;;2.83;1.25;;;;;;;27.83;40.67;98100.72;5010743;28;102698;-60
2021/07/31 13:40:46;;;;;;;3.47;1.40;;;;;;;25.88;42.29;98131.72;4987479;28;102725;-60
2021/07/31 13:43:15;;;;;;;3.42;1.67;;;;;;;26.90;43.56;98105.88;5010170;27;104386;-59
2021/07/31 13:45:44;;;;;;;2.38;1.40;;;;;;;26.65;42.28;98111.38;5020857;27;103320;-59
2021/07/31 13:48:12;;;;;;;3.65;1.55;;;;;;;26.77;43.90;98106.03;5016816;27;102735;-59
2021/07/31 13:50:42;;;;;;;5.10;1.65;;;;;;;26.56;43.46;98106.47;5009438;27;102735;-60
2021/07/31 13:53:10;;;;;;;4.80;1.45;;;;;;;26.68;42.73;98110.91;5008583;28;103368;-60
2021/07/31 13:55:38;;;;;;;3.00;1.48;;;;;;;26.72;41.73;98101.28;5013509;28;103336;-60
2021/07/31 13:58:07;;;;;;;4.10;1.40;;;;;;;25.48;43.79;98103.34;5008203;28;102617;-60
2021/07/31 14:00:37;;;;;;;2.97;1.33;;;;;;;25.55;44.54;98104.09;4983307;28;103695;-60
2021/07/31 14:03:06;;;;;;;3.10;1.75;;;;;;;24.95;45.93;98100.13;5007967;28;103516;-60
2021/07/31 14:05:34;;;;;;;6.45;1.65;;;;;;;24.45;46.81;98104.44;5004398;28;104239;-60
2021/07/31 14:08:05;;;;;;;3.38;1.30;;;;;;;25.66;46.61;98095.28;5007469;28;102639;-60
2021/07/31 14:10:33;;;;;;;1.75;1.33;;;;;;;26.27;44.81;98098.06;5010177;28;102944;-61
2021/07/31 14:13:01;;;;;;;7.95;2.13;;;;;;;25.27;44.88;98098.25;5007254;28;103313;-59
2021/07/31 14:15:29;;;;;;;4.18;1.55;;;;;;;25.71;44.91;98094.63;5007805;27;103160;-60
2021/07/31 14:17:58;;;;;;;2.92;1.73;;;;;;;25.39;46.58;98093.81;5017805;27;102643;-60
2021/07/31 14:20:26;;;;;;;2.58;1.42;;;;;;;25.43;46.28;98089.63;5009889;28;102867;-60
2021/07/31 14:22:55;;;;;;;4.75;1.70;;;;;;;25.58;45.42;98082.03;4998208;28;103344;-60
2021/07/31 14:25:27;;;;;;;4.72;1.58;;;;;;;25.37;45.56;98079.69;5006361;28;104851;-58
2021/07/31 14:27:55;;;;;;;2.67;1.70;;;;;;;26.08;44.68;98076.59;4982579;28;102765;-59
2021/07/31 14:30:24;;;;;;;3.75;1.75;;;;;;;26.50;44.38;98075.69;5008172;28;102678;-59
2021/07/31 14:32:52;;;;;;;3.42;1.70;;;;;;;25.71;45.58;98073.78;5006907;28;103301;-60
2021/07/31 14:35:20;;;;;;;6.28;1.70;;;;;;;25.86;44.29;98068.88;5010727;28;103297;-58
2021/07/31 14:37:49;;;;;;;3.10;1.50;;;;;;;25.05;45.92;98064.50;4996626;28;102782;-59
2021/07/31 14:40:17;;;;;;;2.88;1.25;;;;;;;25.56;45.29;98072.50;5006773;28;102825;-60
2021/07/31 14:42:46;;;;;;;3.45;1.40;;;;;;;26.13;43.14;98074.03;4994596;28;104626;-60
2021/07/31 14:45:14;;;;;;;3.72;1.80;;;;;;;26.26;43.69;98072.03;5006300;28;103162;-59
2021/07/31 14:47:43;;;;;;;1.77;1.38;;;;;;;26.53;43.88;98061.72;5007770;28;102606;-60
2021/07/31 14:50:12;;;;;;;3.83;1.90;;;;;;;26.17;43.72;98069.84;5009448;28;103581;-61
2021/07/31 14:52:40;;;;;;;5.50;1.73;;;;;;;25.79;43.65;98060.00;5003799;28;103854;-62
2021/07/31 14:55:09;;;;;;;3.20;1.73;;;;;;;25.70;45.14;98057.81;4992791;28;104530;-63
2021/07/31 14:57:37;;;;;;;2.92;1.75;;;;;;;25.76;43.91;98046.09;5007321;28;102657;-63
2021/07/31 15:00:08;;;;;;;5.40;1.60;;;;;;;25.43;46.52;98062.59;5009153;28;102960;-63
2021/07/31 15:02:36;;;;;;;4.90;1.83;;;;;;;25.11;45.38;98056.38;5009520;27;103974;-63
2021/07/31 15:05:06;;;;;;;3.70;1.73;;;;;;;25.58;45.77;98057.69;5012316;28;104424;-63
2021/07/31 15:07:34;;;;;;;3.90;1.75;;;;;;;25.34;44.51;98058.50;5011277;28;102803;-63
2021/07/31 15:10:02;;;;;;;5.07;1.83;;;;;;;25.20;45.28;98056.94;4998330;28;102668;-63
2021/07/31 15:12:32;;;;;;;3.78;2.00;;;;;;;25.87;45.15;98059.72;5012271;28;103330;-63
2021/07/31 15:15:00;;;;;;;2.42;1.88;;;;;;;25.27;45.76;98057.69;5013605;27;103682;-63
2021/07/31 15:17:30;;;;;;;3.50;1.50;;;;;;;26.24;45.24;98055.22;5012502;28;102735;-62
2021/07/31 15:19:58;;;;;;;2.97;1.40;;;;;;;25.93;44.17;98058.84;5011460;28;102911;-63
2021/07/31 15:22:26;;;;;;;4.28;1.85;;;;;;;24.96;46.00;98063.09;4990808;28;103330;-64
2021/07/31 15:24:54;;;;;;;4.22;1.60;;;;;;;24.75;47.07;98059.69;5016124;27;104279;-64
2021/07/31 15:27:23;;;;;;;4.43;1.63;;;;;;;25.25;45.88;98055.22;5013028;28;102656;-64
2021/07/31 15:29:50;;;;;;;3.13;1.95;;;;;;;25.80;44.75;98053.53;4994519;28;103259;-63
2021/07/31 15:32:18;;;;;;;3.03;1.50;;;;;;;25.38;45.20;98049.72;5012471;28;103389;-60
2021/07/31 15:34:48;;;;;;;2.28;1.80;;;;;;;25.32;46.13;98042.47;5011772;28;103153;-64
2021/07/31 15:37:16;;;;;;;3.10;1.50;;;;;;;25.66;45.60;98043.88;5013040;28;102920;-64
2021/07/31 15:39:45;;;;;;;2.00;1.58;;;;;;;25.50;45.84;98035.50;4988144;27;103088;-64
2021/07/31 15:42:13;;;;;;;2.50;1.40;;;;;;;25.94;44.81;98033.41;5010273;28;104410;-64
2021/07/31 15:44:41;;;;;;;3.08;1.55;;;;;;;26.01;43.59;98038.75;5007717;28;103539;-64
2021/07/31 15:47:13;;;;;;;4.82;1.70;;;;;;;25.79;45.02;98041.09;4992843;28;102796;-63
2021/07/31 15:49:41;;;;;;;3.35;1.75;;;;;;;26.17;44.73;98042.78;5010805;28;102858;-64
2021/07/31 15:52:11;;;;;;;3.80;1.70;;;;;;;25.53;44.57;98035.06;5009875;28;104465;-63
2021/07/31 15:54:39;;;;;;;2.92;1.38;;;;;;;26.02;43.84;98028.78;4995079;28;103230;-63
2021/07/31 15:57:07;;;;;;;5.45;1.58;;;;;;;25.80;44.55;98042.72;5008230;28;102760;-63
2021/07/31 15:59:36;;;;;;;4.07;1.70;;;;;;;25.10;45.41;98035.78;5012347;28;102780;-63